sensor_id;sensor_type;location;lat;lon;timestamp;temperature;humidity
24410;DHT22;12543;53.364;-1.504;2022-07-29T00:02:28;17.40;99.90
24410;DHT22;12543;53.364;-1.504;2022-07-29T00:04:55;17.30;99.90
24410;DHT22;12543;53.364;-1.504;2022-07-29T00:07:23;17.30;99.90
24410;DHT22;12543;53.364;-1.504;2022-07-29T00:09:50;17.30;99.90
24410;DHT22;12543;53.364;-1.504;2022-07-29T00:12:19;17.30;99.90
24410;DHT22;12543;53.364;-1.504;2022-07-29T00:14:56;17.30;99.90
24410;DHT22;12543;53.364;-1.504;2022-07-29T00:17:23;17.30;99.90
24410;DHT22;12543;53.364;-1.504;2022-07-29T00:19:50;17.20;99.90
24410;DHT22;12543;53.364;-1.504;2022-07-29T00:22:18;17.20;99.90
24410;DHT22;12543;53.364;-1.504;2022-07-29T00:24:46;17.20;99.90
24410;DHT22;12543;53.364;-1.504;2022-07-29T00:27:13;17.20;99.90
24410;DHT22;12543;53.364;-1.504;2022-07-29T00:29:40;17.20;99.90
24410;DHT22;12543;53.364;-1.504;2022-07-29T00:32:07;17.10;99.90
24410;DHT22;12543;53.364;-1.504;2022-07-29T00:34:34;17.10;99.90
24410;DHT22;12543;53.364;-1.504;2022-07-29T00:37:20;17.10;99.90
24410;DHT22;12543;53.364;-1.504;2022-07-29T00:39:47;17.10;99.90
24410;DHT22;12543;53.364;-1.504;2022-07-29T00:42:14;17.10;99.90
24410;DHT22;12543;53.364;-1.504;2022-07-29T00:44:41;17.00;99.90
24410;DHT22;12543;53.364;-1.504;2022-07-29T00:47:10;17.00;99.90
24410;DHT22;12543;53.364;-1.504;2022-07-29T00:49:38;17.00;99.90
24410;DHT22;12543;53.364;-1.504;2022-07-29T00:52:06;17.00;99.90
24410;DHT22;12543;53.364;-1.504;2022-07-29T00:54:33;16.90;99.90
24410;DHT22;12543;53.364;-1.504;2022-07-29T00:57:03;16.90;99.90
24410;DHT22;12543;53.364;-1.504;2022-07-29T00:59:32;16.90;99.90
24410;DHT22;12543;53.364;-1.504;2022-07-29T01:02:01;16.90;99.90
24410;DHT22;12543;53.364;-1.504;2022-07-29T01:04:29;16.90;99.90
24410;DHT22;12543;53.364;-1.504;2022-07-29T01:06:57;16.90;99.90
24410;DHT22;12543;53.364;-1.504;2022-07-29T01:09:25;16.90;99.90
24410;DHT22;12543;53.364;-1.504;2022-07-29T01:12:11;16.80;99.90
24410;DHT22;12543;53.364;-1.504;2022-07-29T01:14:39;16.80;99.90
24410;DHT22;12543;53.364;-1.504;2022-07-29T01:22:27;16.70;99.90
24410;DHT22;12543;53.364;-1.504;2022-07-29T01:29:59;16.70;99.90
24410;DHT22;12543;53.364;-1.504;2022-07-29T01:32:33;16.60;99.90
24410;DHT22;12543;53.364;-1.504;2022-07-29T01:37:44;16.60;99.90
24410;DHT22;12543;53.364;-1.504;2022-07-29T01:40:19;16.60;99.90
24410;DHT22;12543;53.364;-1.504;2022-07-29T01:42:51;16.60;99.90
24410;DHT22;12543;53.364;-1.504;2022-07-29T01:48:06;16.60;99.90
24410;DHT22;12543;53.364;-1.504;2022-07-29T01:50:38;16.60;99.90
24410;DHT22;12543;53.364;-1.504;2022-07-29T01:53:09;16.60;99.90
24410;DHT22;12543;53.364;-1.504;2022-07-29T01:55:38;16.60;99.90
24410;DHT22;12543;53.364;-1.504;2022-07-29T01:58:08;16.50;99.90
24410;DHT22;12543;53.364;-1.504;2022-07-29T02:00:35;16.50;99.90
24410;DHT22;12543;53.364;-1.504;2022-07-29T02:03:04;16.50;99.90
24410;DHT22;12543;53.364;-1.504;2022-07-29T02:05:32;16.50;99.90
24410;DHT22;12543;53.364;-1.504;2022-07-29T02:08:01;16.50;99.90
24410;DHT22;12543;53.364;-1.504;2022-07-29T02:10:30;16.50;99.90
24410;DHT22;12543;53.364;-1.504;2022-07-29T02:12:57;16.50;99.90
24410;DHT22;12543;53.364;-1.504;2022-07-29T02:15:26;16.50;99.90
24410;DHT22;12543;53.364;-1.504;2022-07-29T02:17:55;16.50;99.90
24410;DHT22;12543;53.364;-1.504;2022-07-29T02:20:23;16.50;99.90
24410;DHT22;12543;53.364;-1.504;2022-07-29T02:22:52;16.50;99.90
24410;DHT22;12543;53.364;-1.504;2022-07-29T02:25:19;16.60;99.90
24410;DHT22;12543;53.364;-1.504;2022-07-29T02:27:48;16.50;99.90
24410;DHT22;12543;53.364;-1.504;2022-07-29T02:30:16;16.60;99.90
24410;DHT22;12543;53.364;-1.504;2022-07-29T02:32:44;16.50;99.90
24410;DHT22;12543;53.364;-1.504;2022-07-29T02:35:13;16.50;99.90
24410;DHT22;12543;53.364;-1.504;2022-07-29T02:37:41;16.50;99.90
24410;DHT22;12543;53.364;-1.504;2022-07-29T02:40:09;16.50;99.90
24410;DHT22;12543;53.364;-1.504;2022-07-29T02:42:38;16.50;99.90
24410;DHT22;12543;53.364;-1.504;2022-07-29T02:45:07;16.50;99.90
24410;DHT22;12543;53.364;-1.504;2022-07-29T02:47:45;16.50;99.90
24410;DHT22;12543;53.364;-1.504;2022-07-29T02:50:20;16.50;99.90
24410;DHT22;12543;53.364;-1.504;2022-07-29T02:52:52;16.50;99.90
24410;DHT22;12543;53.364;-1.504;2022-07-29T02:55:25;16.40;99.90
24410;DHT22;12543;53.364;-1.504;2022-07-29T03:00:33;16.40;99.90
24410;DHT22;12543;53.364;-1.504;2022-07-29T03:03:03;16.40;99.90
24410;DHT22;12543;53.364;-1.504;2022-07-29T03:05:32;16.40;99.90
24410;DHT22;12543;53.364;-1.504;2022-07-29T03:08:00;16.40;99.90
24410;DHT22;12543;53.364;-1.504;2022-07-29T03:10:28;16.40;99.90
24410;DHT22;12543;53.364;-1.504;2022-07-29T03:12:57;16.40;99.90
24410;DHT22;12543;53.364;-1.504;2022-07-29T03:15:24;16.40;99.90
24410;DHT22;12543;53.364;-1.504;2022-07-29T03:17:52;16.40;99.90
24410;DHT22;12543;53.364;-1.504;2022-07-29T03:20:19;16.40;99.90
24410;DHT22;12543;53.364;-1.504;2022-07-29T03:22:46;16.30;99.90
24410;DHT22;12543;53.364;-1.504;2022-07-29T03:25:17;16.40;99.90
24410;DHT22;12543;53.364;-1.504;2022-07-29T03:27:44;16.40;99.90
24410;DHT22;12543;53.364;-1.504;2022-07-29T03:30:12;16.30;99.90
24410;DHT22;12543;53.364;-1.504;2022-07-29T03:32:44;16.30;99.90
24410;DHT22;12543;53.364;-1.504;2022-07-29T03:35:11;16.30;99.90
24410;DHT22;12543;53.364;-1.504;2022-07-29T03:37:39;16.30;99.90
24410;DHT22;12543;53.364;-1.504;2022-07-29T03:40:07;16.30;99.90
24410;DHT22;12543;53.364;-1.504;2022-07-29T03:42:42;16.30;99.90
24410;DHT22;12543;53.364;-1.504;2022-07-29T03:45:13;16.30;99.90
24410;DHT22;12543;53.364;-1.504;2022-07-29T03:47:45;16.30;99.90
24410;DHT22;12543;53.364;-1.504;2022-07-29T03:50:22;16.30;99.90
24410;DHT22;12543;53.364;-1.504;2022-07-29T03:52:50;16.30;99.90
24410;DHT22;12543;53.364;-1.504;2022-07-29T03:55:17;16.20;99.90
24410;DHT22;12543;53.364;-1.504;2022-07-29T03:57:47;16.30;99.90
24410;DHT22;12543;53.364;-1.504;2022-07-29T04:00:23;16.30;99.90
24410;DHT22;12543;53.364;-1.504;2022-07-29T04:03:00;16.20;99.90
24410;DHT22;12543;53.364;-1.504;2022-07-29T04:05:27;16.20;99.90
24410;DHT22;12543;53.364;-1.504;2022-07-29T04:07:54;16.20;99.90
24410;DHT22;12543;53.364;-1.504;2022-07-29T04:10:21;16.20;99.90
24410;DHT22;12543;53.364;-1.504;2022-07-29T04:12:58;16.20;99.90
24410;DHT22;12543;53.364;-1.504;2022-07-29T04:15:25;16.20;99.90
24410;DHT22;12543;53.364;-1.504;2022-07-29T04:17:57;16.20;99.90
24410;DHT22;12543;53.364;-1.504;2022-07-29T04:20:24;16.20;99.90
24410;DHT22;12543;53.364;-1.504;2022-07-29T04:22:51;16.20;99.90
24410;DHT22;12543;53.364;-1.504;2022-07-29T04:25:18;16.20;99.90
24410;DHT22;12543;53.364;-1.504;2022-07-29T04:27:46;16.20;99.90
24410;DHT22;12543;53.364;-1.504;2022-07-29T04:30:29;16.20;99.90
24410;DHT22;12543;53.364;-1.504;2022-07-29T04:32:56;16.20;99.90
24410;DHT22;12543;53.364;-1.504;2022-07-29T04:35:23;16.20;99.90
24410;DHT22;12543;53.364;-1.504;2022-07-29T04:37:50;16.20;99.90
24410;DHT22;12543;53.364;-1.504;2022-07-29T04:40:17;16.20;99.90
24410;DHT22;12543;53.364;-1.504;2022-07-29T04:42:44;16.20;99.90
24410;DHT22;12543;53.364;-1.504;2022-07-29T04:45:13;16.20;99.90
24410;DHT22;12543;53.364;-1.504;2022-07-29T04:47:41;16.20;99.90
24410;DHT22;12543;53.364;-1.504;2022-07-29T04:50:09;16.20;99.90
24410;DHT22;12543;53.364;-1.504;2022-07-29T04:52:36;16.20;99.90
24410;DHT22;12543;53.364;-1.504;2022-07-29T04:55:03;16.20;99.90
24410;DHT22;12543;53.364;-1.504;2022-07-29T04:57:31;16.20;99.90
24410;DHT22;12543;53.364;-1.504;2022-07-29T04:59:58;16.20;99.90
24410;DHT22;12543;53.364;-1.504;2022-07-29T05:02:28;16.20;99.90
24410;DHT22;12543;53.364;-1.504;2022-07-29T05:04:55;16.20;99.90
24410;DHT22;12543;53.364;-1.504;2022-07-29T05:07:22;16.20;99.90
24410;DHT22;12543;53.364;-1.504;2022-07-29T05:09:49;16.20;99.90
24410;DHT22;12543;53.364;-1.504;2022-07-29T05:12:16;16.20;99.90
24410;DHT22;12543;53.364;-1.504;2022-07-29T05:14:43;16.20;99.90
24410;DHT22;12543;53.364;-1.504;2022-07-29T05:17:10;16.20;99.90
24410;DHT22;12543;53.364;-1.504;2022-07-29T05:19:40;16.10;99.90
24410;DHT22;12543;53.364;-1.504;2022-07-29T05:22:07;16.20;99.90
24410;DHT22;12543;53.364;-1.504;2022-07-29T05:24:34;16.20;99.90
24410;DHT22;12543;53.364;-1.504;2022-07-29T05:27:01;16.20;99.90
24410;DHT22;12543;53.364;-1.504;2022-07-29T05:29:28;16.20;99.90
24410;DHT22;12543;53.364;-1.504;2022-07-29T05:32:10;16.20;99.90
24410;DHT22;12543;53.364;-1.504;2022-07-29T05:34:38;16.20;99.90
24410;DHT22;12543;53.364;-1.504;2022-07-29T05:37:18;16.20;99.90
24410;DHT22;12543;53.364;-1.504;2022-07-29T05:39:45;16.20;99.90
24410;DHT22;12543;53.364;-1.504;2022-07-29T05:42:16;16.20;99.90
24410;DHT22;12543;53.364;-1.504;2022-07-29T05:44:43;16.20;99.90
24410;DHT22;12543;53.364;-1.504;2022-07-29T05:47:10;16.20;99.90
24410;DHT22;12543;53.364;-1.504;2022-07-29T05:49:38;16.20;99.90
24410;DHT22;12543;53.364;-1.504;2022-07-29T05:52:05;16.20;99.90
24410;DHT22;12543;53.364;-1.504;2022-07-29T05:54:32;16.20;99.90
24410;DHT22;12543;53.364;-1.504;2022-07-29T05:56:59;16.20;99.90
24410;DHT22;12543;53.364;-1.504;2022-07-29T05:59:26;16.20;99.90
24410;DHT22;12543;53.364;-1.504;2022-07-29T06:01:56;16.20;99.90
24410;DHT22;12543;53.364;-1.504;2022-07-29T06:04:24;16.20;99.90
24410;DHT22;12543;53.364;-1.504;2022-07-29T06:06:51;16.20;99.90
24410;DHT22;12543;53.364;-1.504;2022-07-29T06:09:18;16.20;99.90
24410;DHT22;12543;53.364;-1.504;2022-07-29T06:11:45;16.20;99.90
24410;DHT22;12543;53.364;-1.504;2022-07-29T06:14:12;16.20;99.90
24410;DHT22;12543;53.364;-1.504;2022-07-29T06:16:40;16.20;99.90
24410;DHT22;12543;53.364;-1.504;2022-07-29T06:19:07;16.20;99.90
24410;DHT22;12543;53.364;-1.504;2022-07-29T06:21:35;16.20;99.90
24410;DHT22;12543;53.364;-1.504;2022-07-29T06:24:10;16.20;99.90
24410;DHT22;12543;53.364;-1.504;2022-07-29T06:26:37;16.30;99.90
24410;DHT22;12543;53.364;-1.504;2022-07-29T06:29:09;16.20;99.90
24410;DHT22;12543;53.364;-1.504;2022-07-29T06:31:37;16.20;99.90
24410;DHT22;12543;53.364;-1.504;2022-07-29T06:34:04;16.30;99.90
24410;DHT22;12543;53.364;-1.504;2022-07-29T06:36:34;16.20;99.90
24410;DHT22;12543;53.364;-1.504;2022-07-29T06:39:04;16.20;99.90
24410;DHT22;12543;53.364;-1.504;2022-07-29T06:41:31;16.20;99.90
24410;DHT22;12543;53.364;-1.504;2022-07-29T06:44:06;16.20;99.90
24410;DHT22;12543;53.364;-1.504;2022-07-29T06:46:33;16.20;99.90
24410;DHT22;12543;53.364;-1.504;2022-07-29T06:48:59;16.20;99.90
24410;DHT22;12543;53.364;-1.504;2022-07-29T06:51:28;16.30;99.90
24410;DHT22;12543;53.364;-1.504;2022-07-29T06:53:55;16.30;99.90
24410;DHT22;12543;53.364;-1.504;2022-07-29T06:56:33;16.20;99.90
24410;DHT22;12543;53.364;-1.504;2022-07-29T06:59:06;16.20;99.90
24410;DHT22;12543;53.364;-1.504;2022-07-29T07:01:34;16.20;99.90
24410;DHT22;12543;53.364;-1.504;2022-07-29T07:04:02;16.20;99.90
24410;DHT22;12543;53.364;-1.504;2022-07-29T07:06:29;16.20;99.90
24410;DHT22;12543;53.364;-1.504;2022-07-29T07:08:56;16.20;99.90
24410;DHT22;12543;53.364;-1.504;2022-07-29T07:11:23;16.20;99.90
24410;DHT22;12543;53.364;-1.504;2022-07-29T07:13:50;16.20;99.90
24410;DHT22;12543;53.364;-1.504;2022-07-29T07:16:17;16.20;99.90
24410;DHT22;12543;53.364;-1.504;2022-07-29T07:18:44;16.20;99.90
24410;DHT22;12543;53.364;-1.504;2022-07-29T07:21:12;16.20;99.90
24410;DHT22;12543;53.364;-1.504;2022-07-29T07:23:45;16.20;99.90
24410;DHT22;12543;53.364;-1.504;2022-07-29T07:26:12;16.20;99.90
24410;DHT22;12543;53.364;-1.504;2022-07-29T07:28:39;16.20;99.90
24410;DHT22;12543;53.364;-1.504;2022-07-29T07:31:06;16.20;99.90
24410;DHT22;12543;53.364;-1.504;2022-07-29T07:33:33;16.20;99.90
24410;DHT22;12543;53.364;-1.504;2022-07-29T07:36:00;16.20;99.90
24410;DHT22;12543;53.364;-1.504;2022-07-29T07:38:27;16.10;99.90
24410;DHT22;12543;53.364;-1.504;2022-07-29T07:40:54;16.20;99.90
24410;DHT22;12543;53.364;-1.504;2022-07-29T07:43:21;16.20;99.90
24410;DHT22;12543;53.364;-1.504;2022-07-29T07:45:49;16.20;99.90
24410;DHT22;12543;53.364;-1.504;2022-07-29T07:48:16;16.20;99.90
24410;DHT22;12543;53.364;-1.504;2022-07-29T07:50:43;16.20;99.90
24410;DHT22;12543;53.364;-1.504;2022-07-29T07:53:11;16.20;99.90
24410;DHT22;12543;53.364;-1.504;2022-07-29T07:55:41;16.20;99.90
24410;DHT22;12543;53.364;-1.504;2022-07-29T07:58:29;16.20;99.90
24410;DHT22;12543;53.364;-1.504;2022-07-29T08:00:55;16.20;99.90
24410;DHT22;12543;53.364;-1.504;2022-07-29T08:03:22;16.20;99.90
24410;DHT22;12543;53.364;-1.504;2022-07-29T08:05:49;16.20;99.90
24410;DHT22;12543;53.364;-1.504;2022-07-29T08:08:20;16.30;99.90
24410;DHT22;12543;53.364;-1.504;2022-07-29T08:10:47;16.30;99.90
24410;DHT22;12543;53.364;-1.504;2022-07-29T08:13:23;16.20;99.90
24410;DHT22;12543;53.364;-1.504;2022-07-29T08:15:52;16.30;99.90
24410;DHT22;12543;53.364;-1.504;2022-07-29T08:18:27;16.30;99.90
24410;DHT22;12543;53.364;-1.504;2022-07-29T08:20:54;16.30;99.90
24410;DHT22;12543;53.364;-1.504;2022-07-29T08:23:22;16.40;99.90
24410;DHT22;12543;53.364;-1.504;2022-07-29T08:26:11;16.40;99.90
24410;DHT22;12543;53.364;-1.504;2022-07-29T08:28:42;16.40;99.90
24410;DHT22;12543;53.364;-1.504;2022-07-29T08:31:12;16.40;99.90
24410;DHT22;12543;53.364;-1.504;2022-07-29T08:33:40;16.40;99.90
24410;DHT22;12543;53.364;-1.504;2022-07-29T08:36:07;16.40;99.90
24410;DHT22;12543;53.364;-1.504;2022-07-29T08:38:34;16.40;99.90
24410;DHT22;12543;53.364;-1.504;2022-07-29T08:41:01;16.40;99.90
24410;DHT22;12543;53.364;-1.504;2022-07-29T08:43:28;16.40;99.90
24410;DHT22;12543;53.364;-1.504;2022-07-29T08:45:55;16.40;99.90
24410;DHT22;12543;53.364;-1.504;2022-07-29T08:48:23;16.50;99.90
24410;DHT22;12543;53.364;-1.504;2022-07-29T08:50:54;16.50;99.90
24410;DHT22;12543;53.364;-1.504;2022-07-29T08:53:23;16.50;99.90
24410;DHT22;12543;53.364;-1.504;2022-07-29T08:55:50;16.50;99.90
24410;DHT22;12543;53.364;-1.504;2022-07-29T08:58:18;16.50;99.90
24410;DHT22;12543;53.364;-1.504;2022-07-29T09:00:52;16.50;99.90
24410;DHT22;12543;53.364;-1.504;2022-07-29T09:03:24;16.50;99.90
24410;DHT22;12543;53.364;-1.504;2022-07-29T09:05:53;16.50;99.90
24410;DHT22;12543;53.364;-1.504;2022-07-29T09:08:20;16.50;99.90
24410;DHT22;12543;53.364;-1.504;2022-07-29T09:10:48;16.60;99.90
24410;DHT22;12543;53.364;-1.504;2022-07-29T09:13:15;16.60;99.90
24410;DHT22;12543;53.364;-1.504;2022-07-29T09:15:43;16.60;99.90
24410;DHT22;12543;53.364;-1.504;2022-07-29T09:18:10;16.70;99.90
24410;DHT22;12543;53.364;-1.504;2022-07-29T09:20:56;16.70;99.90
24410;DHT22;12543;53.364;-1.504;2022-07-29T09:23:59;16.80;99.90
24410;DHT22;12543;53.364;-1.504;2022-07-29T09:26:30;16.80;99.90
24410;DHT22;12543;53.364;-1.504;2022-07-29T09:28:57;16.90;99.90
24410;DHT22;12543;53.364;-1.504;2022-07-29T09:31:35;16.90;99.90
24410;DHT22;12543;53.364;-1.504;2022-07-29T09:34:03;17.00;99.90
24410;DHT22;12543;53.364;-1.504;2022-07-29T09:36:30;17.10;99.90
24410;DHT22;12543;53.364;-1.504;2022-07-29T09:38:57;17.20;99.90
24410;DHT22;12543;53.364;-1.504;2022-07-29T09:41:26;17.30;99.90
24410;DHT22;12543;53.364;-1.504;2022-07-29T09:43:54;17.40;99.90
24410;DHT22;12543;53.364;-1.504;2022-07-29T09:46:21;17.50;99.90
24410;DHT22;12543;53.364;-1.504;2022-07-29T09:49:08;17.60;99.90
24410;DHT22;12543;53.364;-1.504;2022-07-29T09:51:36;17.80;99.90
24410;DHT22;12543;53.364;-1.504;2022-07-29T09:56:50;18.30;99.90
24410;DHT22;12543;53.364;-1.504;2022-07-29T09:59:17;18.60;99.90
24410;DHT22;12543;53.364;-1.504;2022-07-29T10:01:44;18.80;99.90
24410;DHT22;12543;53.364;-1.504;2022-07-29T10:04:11;19.00;99.90
24410;DHT22;12543;53.364;-1.504;2022-07-29T10:06:58;19.20;99.90
24410;DHT22;12543;53.364;-1.504;2022-07-29T10:09:30;19.30;99.90
24410;DHT22;12543;53.364;-1.504;2022-07-29T10:12:11;19.30;99.90
24410;DHT22;12543;53.364;-1.504;2022-07-29T10:14:40;19.40;99.90
24410;DHT22;12543;53.364;-1.504;2022-07-29T10:17:08;19.40;99.90
24410;DHT22;12543;53.364;-1.504;2022-07-29T10:19:36;19.40;99.90
24410;DHT22;12543;53.364;-1.504;2022-07-29T10:22:04;19.50;99.90
24410;DHT22;12543;53.364;-1.504;2022-07-29T10:24:32;19.50;99.90
24410;DHT22;12543;53.364;-1.504;2022-07-29T10:27:00;19.60;99.90
24410;DHT22;12543;53.364;-1.504;2022-07-29T10:29:28;19.70;99.90
24410;DHT22;12543;53.364;-1.504;2022-07-29T10:34:30;19.90;99.90
24410;DHT22;12543;53.364;-1.504;2022-07-29T10:37:07;20.00;99.90
24410;DHT22;12543;53.364;-1.504;2022-07-29T10:42:18;20.20;99.90
24410;DHT22;12543;53.364;-1.504;2022-07-29T10:45:00;20.20;99.90
24410;DHT22;12543;53.364;-1.504;2022-07-29T10:47:27;20.30;99.90
24410;DHT22;12543;53.364;-1.504;2022-07-29T10:50:04;20.30;99.90
24410;DHT22;12543;53.364;-1.504;2022-07-29T11:00:38;20.20;99.90
24410;DHT22;12543;53.364;-1.504;2022-07-29T11:03:05;20.20;99.90
24410;DHT22;12543;53.364;-1.504;2022-07-29T11:05:55;20.20;99.90
24410;DHT22;12543;53.364;-1.504;2022-07-29T11:08:25;20.20;99.90
24410;DHT22;12543;53.364;-1.504;2022-07-29T11:11:30;20.20;99.90
24410;DHT22;12543;53.364;-1.504;2022-07-29T11:16:12;20.20;99.90
24410;DHT22;12543;53.364;-1.504;2022-07-29T11:21:34;20.20;99.90
24410;DHT22;12543;53.364;-1.504;2022-07-29T11:29:40;20.00;99.90
24410;DHT22;12543;53.364;-1.504;2022-07-29T11:32:09;20.00;99.90
24410;DHT22;12543;53.364;-1.504;2022-07-29T11:34:48;19.90;99.90
24410;DHT22;12543;53.364;-1.504;2022-07-29T11:37:16;19.90;99.90
24410;DHT22;12543;53.364;-1.504;2022-07-29T11:45:07;19.70;99.90
24410;DHT22;12543;53.364;-1.504;2022-07-29T11:47:58;19.60;99.90
24410;DHT22;12543;53.364;-1.504;2022-07-29T11:50:45;19.60;99.90
24410;DHT22;12543;53.364;-1.504;2022-07-29T11:53:33;19.60;99.90
24410;DHT22;12543;53.364;-1.504;2022-07-29T11:56:00;19.60;99.90
24410;DHT22;12543;53.364;-1.504;2022-07-29T11:58:29;19.60;99.90
24410;DHT22;12543;53.364;-1.504;2022-07-29T12:00:56;19.60;99.90
24410;DHT22;12543;53.364;-1.504;2022-07-29T12:03:30;19.80;99.90
24410;DHT22;12543;53.364;-1.504;2022-07-29T12:06:19;19.80;99.90
24410;DHT22;12543;53.364;-1.504;2022-07-29T12:08:47;19.90;99.90
24410;DHT22;12543;53.364;-1.504;2022-07-29T12:11:15;20.10;99.90
24410;DHT22;12543;53.364;-1.504;2022-07-29T12:13:47;20.30;99.90
24410;DHT22;12543;53.364;-1.504;2022-07-29T12:16:15;20.50;99.90
24410;DHT22;12543;53.364;-1.504;2022-07-29T12:18:57;20.80;99.90
24410;DHT22;12543;53.364;-1.504;2022-07-29T12:21:25;21.00;99.90
24410;DHT22;12543;53.364;-1.504;2022-07-29T12:23:54;21.20;99.90
24410;DHT22;12543;53.364;-1.504;2022-07-29T12:26:27;21.40;99.90
24410;DHT22;12543;53.364;-1.504;2022-07-29T12:28:54;21.60;99.90
24410;DHT22;12543;53.364;-1.504;2022-07-29T12:31:22;21.70;99.90
24410;DHT22;12543;53.364;-1.504;2022-07-29T12:34:10;21.90;99.90
24410;DHT22;12543;53.364;-1.504;2022-07-29T12:36:37;22.10;99.90
24410;DHT22;12543;53.364;-1.504;2022-07-29T12:39:04;22.20;99.90
24410;DHT22;12543;53.364;-1.504;2022-07-29T12:41:31;22.30;99.90
24410;DHT22;12543;53.364;-1.504;2022-07-29T12:44:01;22.40;99.90
24410;DHT22;12543;53.364;-1.504;2022-07-29T12:46:28;22.50;99.90
24410;DHT22;12543;53.364;-1.504;2022-07-29T12:48:55;22.50;99.90
24410;DHT22;12543;53.364;-1.504;2022-07-29T12:56:30;22.40;99.90
24410;DHT22;12543;53.364;-1.504;2022-07-29T13:01:43;22.30;99.90
24410;DHT22;12543;53.364;-1.504;2022-07-29T13:04:10;22.20;99.90
24410;DHT22;12543;53.364;-1.504;2022-07-29T13:06:38;22.20;99.90
24410;DHT22;12543;53.364;-1.504;2022-07-29T13:11:38;22.00;99.90
24410;DHT22;12543;53.364;-1.504;2022-07-29T13:14:20;21.90;99.90
24410;DHT22;12543;53.364;-1.504;2022-07-29T13:17:04;21.80;99.90
24410;DHT22;12543;53.364;-1.504;2022-07-29T13:19:35;21.80;99.90
24410;DHT22;12543;53.364;-1.504;2022-07-29T13:22:03;21.70;99.90
24410;DHT22;12543;53.364;-1.504;2022-07-29T13:24:30;21.70;99.90
24410;DHT22;12543;53.364;-1.504;2022-07-29T13:26:57;21.70;99.90
24410;DHT22;12543;53.364;-1.504;2022-07-29T13:29:24;21.60;99.90
24410;DHT22;12543;53.364;-1.504;2022-07-29T13:31:57;21.60;99.90
24410;DHT22;12543;53.364;-1.504;2022-07-29T13:34:25;21.50;99.90
24410;DHT22;12543;53.364;-1.504;2022-07-29T13:36:52;21.50;99.90
24410;DHT22;12543;53.364;-1.504;2022-07-29T13:39:19;21.40;99.90
24410;DHT22;12543;53.364;-1.504;2022-07-29T13:41:46;21.30;99.90
24410;DHT22;12543;53.364;-1.504;2022-07-29T13:44:14;21.20;99.90
24410;DHT22;12543;53.364;-1.504;2022-07-29T13:46:41;21.10;99.90
24410;DHT22;12543;53.364;-1.504;2022-07-29T13:49:08;21.10;99.90
24410;DHT22;12543;53.364;-1.504;2022-07-29T13:51:36;21.00;99.90
24410;DHT22;12543;53.364;-1.504;2022-07-29T13:54:03;20.90;99.90
24410;DHT22;12543;53.364;-1.504;2022-07-29T13:56:30;20.80;99.90
24410;DHT22;12543;53.364;-1.504;2022-07-29T13:58:57;20.90;99.90
24410;DHT22;12543;53.364;-1.504;2022-07-29T14:01:24;20.80;99.90
24410;DHT22;12543;53.364;-1.504;2022-07-29T14:03:53;20.80;99.90
24410;DHT22;12543;53.364;-1.504;2022-07-29T14:06:23;20.70;99.90
24410;DHT22;12543;53.364;-1.504;2022-07-29T14:08:51;20.80;99.90
24410;DHT22;12543;53.364;-1.504;2022-07-29T14:11:20;20.80;99.90
24410;DHT22;12543;53.364;-1.504;2022-07-29T14:13:47;20.70;99.90
24410;DHT22;12543;53.364;-1.504;2022-07-29T14:16:14;20.70;99.90
24410;DHT22;12543;53.364;-1.504;2022-07-29T14:18:41;20.70;99.90
24410;DHT22;12543;53.364;-1.504;2022-07-29T14:21:09;20.80;99.90
24410;DHT22;12543;53.364;-1.504;2022-07-29T14:23:36;20.70;99.90
24410;DHT22;12543;53.364;-1.504;2022-07-29T14:26:07;20.70;99.90
24410;DHT22;12543;53.364;-1.504;2022-07-29T14:28:41;20.70;99.90
24410;DHT22;12543;53.364;-1.504;2022-07-29T14:31:10;20.70;99.90
24410;DHT22;12543;53.364;-1.504;2022-07-29T14:33:37;20.70;99.90
24410;DHT22;12543;53.364;-1.504;2022-07-29T14:36:04;20.70;99.90
24410;DHT22;12543;53.364;-1.504;2022-07-29T14:38:31;20.70;99.90
24410;DHT22;12543;53.364;-1.504;2022-07-29T14:40:58;20.60;99.90
24410;DHT22;12543;53.364;-1.504;2022-07-29T14:43:25;20.70;99.90
24410;DHT22;12543;53.364;-1.504;2022-07-29T14:45:52;20.70;99.90
24410;DHT22;12543;53.364;-1.504;2022-07-29T14:48:27;20.60;99.90
24410;DHT22;12543;53.364;-1.504;2022-07-29T14:50:54;20.60;99.90
24410;DHT22;12543;53.364;-1.504;2022-07-29T14:53:25;20.70;99.90
24410;DHT22;12543;53.364;-1.504;2022-07-29T14:55:52;20.60;99.90
24410;DHT22;12543;53.364;-1.504;2022-07-29T14:58:19;20.60;99.90
24410;DHT22;12543;53.364;-1.504;2022-07-29T15:00:54;20.60;99.90
24410;DHT22;12543;53.364;-1.504;2022-07-29T15:03:21;20.60;99.90
24410;DHT22;12543;53.364;-1.504;2022-07-29T15:05:52;20.60;99.90
24410;DHT22;12543;53.364;-1.504;2022-07-29T15:08:22;20.60;99.90
24410;DHT22;12543;53.364;-1.504;2022-07-29T15:10:51;20.60;99.90
24410;DHT22;12543;53.364;-1.504;2022-07-29T15:13:18;20.60;99.90
24410;DHT22;12543;53.364;-1.504;2022-07-29T15:15:45;20.60;99.90
24410;DHT22;12543;53.364;-1.504;2022-07-29T15:18:12;20.70;99.90
24410;DHT22;12543;53.364;-1.504;2022-07-29T15:20:39;20.60;99.90
24410;DHT22;12543;53.364;-1.504;2022-07-29T15:23:07;20.70;99.90
24410;DHT22;12543;53.364;-1.504;2022-07-29T15:25:36;20.60;99.90
24410;DHT22;12543;53.364;-1.504;2022-07-29T15:28:03;20.60;99.90
24410;DHT22;12543;53.364;-1.504;2022-07-29T15:30:33;20.60;99.90
24410;DHT22;12543;53.364;-1.504;2022-07-29T15:33:02;20.60;99.90
24410;DHT22;12543;53.364;-1.504;2022-07-29T15:35:30;20.60;99.90
24410;DHT22;12543;53.364;-1.504;2022-07-29T15:37:57;20.60;99.90
24410;DHT22;12543;53.364;-1.504;2022-07-29T15:40:24;20.60;99.90
24410;DHT22;12543;53.364;-1.504;2022-07-29T15:42:51;20.60;99.90
24410;DHT22;12543;53.364;-1.504;2022-07-29T15:45:18;20.60;99.90
24410;DHT22;12543;53.364;-1.504;2022-07-29T15:47:45;20.60;99.90
24410;DHT22;12543;53.364;-1.504;2022-07-29T15:50:12;20.70;99.90
24410;DHT22;12543;53.364;-1.504;2022-07-29T15:52:42;20.70;99.90
24410;DHT22;12543;53.364;-1.504;2022-07-29T15:55:09;20.70;99.90
24410;DHT22;12543;53.364;-1.504;2022-07-29T15:57:37;20.80;99.90
24410;DHT22;12543;53.364;-1.504;2022-07-29T16:00:04;20.70;99.90
24410;DHT22;12543;53.364;-1.504;2022-07-29T16:02:34;20.70;99.90
24410;DHT22;12543;53.364;-1.504;2022-07-29T16:05:02;20.80;99.90
24410;DHT22;12543;53.364;-1.504;2022-07-29T16:07:34;20.80;99.90
24410;DHT22;12543;53.364;-1.504;2022-07-29T16:10:02;20.80;99.90
24410;DHT22;12543;53.364;-1.504;2022-07-29T16:12:29;20.80;99.90
24410;DHT22;12543;53.364;-1.504;2022-07-29T16:14:56;20.80;99.90
24410;DHT22;12543;53.364;-1.504;2022-07-29T16:17:23;20.80;99.90
24410;DHT22;12543;53.364;-1.504;2022-07-29T16:19:50;20.80;99.90
24410;DHT22;12543;53.364;-1.504;2022-07-29T16:22:17;20.80;99.90
24410;DHT22;12543;53.364;-1.504;2022-07-29T16:24:44;20.80;99.90
24410;DHT22;12543;53.364;-1.504;2022-07-29T16:27:11;20.80;99.90
24410;DHT22;12543;53.364;-1.504;2022-07-29T16:29:38;20.80;99.90
24410;DHT22;12543;53.364;-1.504;2022-07-29T16:32:05;20.80;99.90